sensor_id;sensor_type;location;lat;lon;timestamp;P1;durP1;ratioP1;P2;durP2;ratioP2
73264;SDS011;61493;51.008;14.088;2023-07-13T00:01:53;2.20;;;1.73;;
73264;SDS011;61493;51.008;14.088;2023-07-13T00:04:19;3.25;;;1.80;;
73264;SDS011;61493;51.008;14.088;2023-07-13T00:06:45;2.25;;;1.70;;
73264;SDS011;61493;51.008;14.088;2023-07-13T00:09:12;3.45;;;1.70;;
73264;SDS011;61493;51.008;14.088;2023-07-13T00:11:38;2.72;;;1.60;;
73264;SDS011;61493;51.008;14.088;2023-07-13T00:14:03;3.97;;;1.70;;
73264;SDS011;61493;51.008;14.088;2023-07-13T00:16:28;2.33;;;1.73;;
73264;SDS011;61493;51.008;14.088;2023-07-13T00:18:53;3.13;;;1.92;;
73264;SDS011;61493;51.008;14.088;2023-07-13T00:21:19;2.65;;;1.48;;
73264;SDS011;61493;51.008;14.088;2023-07-13T00:23:44;2.58;;;1.60;;
73264;SDS011;61493;51.008;14.088;2023-07-13T00:26:09;2.67;;;1.60;;
73264;SDS011;61493;51.008;14.088;2023-07-13T00:28:35;2.72;;;1.80;;
73264;SDS011;61493;51.008;14.088;2023-07-13T00:31:01;2.70;;;1.80;;
73264;SDS011;61493;51.008;14.088;2023-07-13T00:33:27;3.58;;;1.65;;
73264;SDS011;61493;51.008;14.088;2023-07-13T00:35:53;3.38;;;1.92;;
73264;SDS011;61493;51.008;14.088;2023-07-13T00:38:18;4.72;;;1.88;;
73264;SDS011;61493;51.008;14.088;2023-07-13T00:40:43;4.22;;;2.42;;
73264;SDS011;61493;51.008;14.088;2023-07-13T00:43:11;7.47;;;2.77;;
73264;SDS011;61493;51.008;14.088;2023-07-13T00:48:09;6.97;;;2.78;;
73264;SDS011;61493;51.008;14.088;2023-07-13T00:50:34;5.70;;;3.22;;
73264;SDS011;61493;51.008;14.088;2023-07-13T00:53:00;5.85;;;2.90;;
73264;SDS011;61493;51.008;14.088;2023-07-13T00:55:25;8.13;;;4.00;;
73264;SDS011;61493;51.008;14.088;2023-07-13T00:57:50;5.72;;;3.67;;
73264;SDS011;61493;51.008;14.088;2023-07-13T01:00:16;7.67;;;3.37;;
73264;SDS011;61493;51.008;14.088;2023-07-13T01:02:42;4.72;;;2.78;;
73264;SDS011;61493;51.008;14.088;2023-07-13T01:05:10;4.43;;;2.53;;
73264;SDS011;61493;51.008;14.088;2023-07-13T01:07:35;4.75;;;2.42;;
73264;SDS011;61493;51.008;14.088;2023-07-13T01:10:02;3.72;;;2.33;;
73264;SDS011;61493;51.008;14.088;2023-07-13T01:12:27;3.50;;;2.65;;
73264;SDS011;61493;51.008;14.088;2023-07-13T01:14:56;4.25;;;2.60;;
73264;SDS011;61493;51.008;14.088;2023-07-13T01:17:22;4.60;;;2.33;;
73264;SDS011;61493;51.008;14.088;2023-07-13T01:19:47;4.45;;;2.70;;
73264;SDS011;61493;51.008;14.088;2023-07-13T01:22:14;3.87;;;2.37;;
73264;SDS011;61493;51.008;14.088;2023-07-13T01:24:39;5.80;;;2.45;;
73264;SDS011;61493;51.008;14.088;2023-07-13T01:27:06;2.58;;;1.95;;
73264;SDS011;61493;51.008;14.088;2023-07-13T01:29:32;4.55;;;2.35;;
73264;SDS011;61493;51.008;14.088;2023-07-13T01:31:57;4.78;;;2.95;;
73264;SDS011;61493;51.008;14.088;2023-07-13T01:34:23;5.67;;;2.83;;
73264;SDS011;61493;51.008;14.088;2023-07-13T01:36:48;5.10;;;2.55;;
73264;SDS011;61493;51.008;14.088;2023-07-13T01:39:13;5.03;;;2.83;;
73264;SDS011;61493;51.008;14.088;2023-07-13T01:41:39;4.85;;;2.42;;
73264;SDS011;61493;51.008;14.088;2023-07-13T01:44:04;6.45;;;2.83;;
73264;SDS011;61493;51.008;14.088;2023-07-13T01:46:30;5.45;;;3.25;;
73264;SDS011;61493;51.008;14.088;2023-07-13T01:48:55;5.13;;;2.63;;
73264;SDS011;61493;51.008;14.088;2023-07-13T01:51:20;4.13;;;2.47;;
73264;SDS011;61493;51.008;14.088;2023-07-13T01:53:45;4.68;;;2.83;;
73264;SDS011;61493;51.008;14.088;2023-07-13T01:56:11;5.22;;;2.90;;
73264;SDS011;61493;51.008;14.088;2023-07-13T01:58:36;6.10;;;2.90;;
73264;SDS011;61493;51.008;14.088;2023-07-13T02:01:01;4.50;;;2.90;;
73264;SDS011;61493;51.008;14.088;2023-07-13T02:03:26;3.87;;;2.67;;
73264;SDS011;61493;51.008;14.088;2023-07-13T02:05:51;6.53;;;3.35;;
73264;SDS011;61493;51.008;14.088;2023-07-13T02:08:17;4.03;;;2.70;;
73264;SDS011;61493;51.008;14.088;2023-07-13T02:10:42;5.00;;;3.53;;
73264;SDS011;61493;51.008;14.088;2023-07-13T02:13:07;4.72;;;3.30;;
73264;SDS011;61493;51.008;14.088;2023-07-13T02:15:33;5.10;;;3.08;;
73264;SDS011;61493;51.008;14.088;2023-07-13T02:17:58;5.43;;;3.15;;
73264;SDS011;61493;51.008;14.088;2023-07-13T02:20:24;4.38;;;3.30;;
73264;SDS011;61493;51.008;14.088;2023-07-13T02:22:49;5.13;;;3.50;;
73264;SDS011;61493;51.008;14.088;2023-07-13T02:25:14;5.43;;;3.88;;
73264;SDS011;61493;51.008;14.088;2023-07-13T02:27:40;6.40;;;3.63;;
73264;SDS011;61493;51.008;14.088;2023-07-13T02:30:05;5.88;;;3.85;;
73264;SDS011;61493;51.008;14.088;2023-07-13T02:32:30;5.28;;;3.60;;
73264;SDS011;61493;51.008;14.088;2023-07-13T02:34:56;5.78;;;3.92;;
73264;SDS011;61493;51.008;14.088;2023-07-13T02:37:21;6.85;;;3.65;;
73264;SDS011;61493;51.008;14.088;2023-07-13T02:39:46;5.72;;;3.90;;
73264;SDS011;61493;51.008;14.088;2023-07-13T02:42:13;6.85;;;3.83;;
73264;SDS011;61493;51.008;14.088;2023-07-13T02:44:38;7.85;;;3.88;;
73264;SDS011;61493;51.008;14.088;2023-07-13T02:47:03;6.17;;;4.43;;
73264;SDS011;61493;51.008;14.088;2023-07-13T02:49:28;7.40;;;3.63;;
73264;SDS011;61493;51.008;14.088;2023-07-13T02:51:53;4.15;;;3.17;;
73264;SDS011;61493;51.008;14.088;2023-07-13T02:54:19;4.28;;;2.85;;
73264;SDS011;61493;51.008;14.088;2023-07-13T02:56:44;5.50;;;3.75;;
73264;SDS011;61493;51.008;14.088;2023-07-13T02:59:09;6.50;;;3.72;;
73264;SDS011;61493;51.008;14.088;2023-07-13T03:01:35;4.93;;;3.38;;
73264;SDS011;61493;51.008;14.088;2023-07-13T03:04:01;4.55;;;3.60;;
73264;SDS011;61493;51.008;14.088;2023-07-13T03:06:26;6.00;;;3.20;;
73264;SDS011;61493;51.008;14.088;2023-07-13T03:08:54;6.03;;;3.80;;
73264;SDS011;61493;51.008;14.088;2023-07-13T03:11:26;4.30;;;3.05;;
73264;SDS011;61493;51.008;14.088;2023-07-13T03:13:51;4.83;;;3.10;;
73264;SDS011;61493;51.008;14.088;2023-07-13T03:16:16;6.03;;;3.70;;
73264;SDS011;61493;51.008;14.088;2023-07-13T03:18:42;5.97;;;3.85;;
73264;SDS011;61493;51.008;14.088;2023-07-13T03:21:07;5.07;;;3.40;;
73264;SDS011;61493;51.008;14.088;2023-07-13T03:23:32;4.22;;;3.25;;
73264;SDS011;61493;51.008;14.088;2023-07-13T03:26:04;5.40;;;3.75;;
73264;SDS011;61493;51.008;14.088;2023-07-13T03:28:30;6.40;;;3.03;;
73264;SDS011;61493;51.008;14.088;2023-07-13T03:31:02;6.07;;;3.80;;
73264;SDS011;61493;51.008;14.088;2023-07-13T03:33:28;7.00;;;3.23;;
73264;SDS011;61493;51.008;14.088;2023-07-13T03:35:53;5.25;;;3.03;;
73264;SDS011;61493;51.008;14.088;2023-07-13T03:38:18;4.90;;;3.33;;
73264;SDS011;61493;51.008;14.088;2023-07-13T03:40:44;4.80;;;3.28;;
73264;SDS011;61493;51.008;14.088;2023-07-13T03:43:09;6.70;;;3.77;;
73264;SDS011;61493;51.008;14.088;2023-07-13T03:45:35;6.20;;;3.72;;
73264;SDS011;61493;51.008;14.088;2023-07-13T03:48:02;4.10;;;3.08;;
73264;SDS011;61493;51.008;14.088;2023-07-13T03:50:27;4.80;;;3.70;;
73264;SDS011;61493;51.008;14.088;2023-07-13T03:52:52;6.03;;;3.30;;
73264;SDS011;61493;51.008;14.088;2023-07-13T03:55:17;6.97;;;3.70;;
73264;SDS011;61493;51.008;14.088;2023-07-13T03:57:43;8.13;;;4.22;;
73264;SDS011;61493;51.008;14.088;2023-07-13T04:00:08;6.35;;;3.60;;
73264;SDS011;61493;51.008;14.088;2023-07-13T04:02:34;5.78;;;3.60;;
73264;SDS011;61493;51.008;14.088;2023-07-13T04:04:59;7.13;;;3.03;;
73264;SDS011;61493;51.008;14.088;2023-07-13T04:07:24;4.88;;;2.88;;
73264;SDS011;61493;51.008;14.088;2023-07-13T04:09:49;5.07;;;2.78;;
73264;SDS011;61493;51.008;14.088;2023-07-13T04:12:14;4.57;;;3.28;;
73264;SDS011;61493;51.008;14.088;2023-07-13T04:14:40;5.20;;;3.10;;
73264;SDS011;61493;51.008;14.088;2023-07-13T04:17:05;4.40;;;3.40;;
73264;SDS011;61493;51.008;14.088;2023-07-13T04:19:30;6.97;;;3.75;;
73264;SDS011;61493;51.008;14.088;2023-07-13T04:21:55;4.23;;;3.23;;
73264;SDS011;61493;51.008;14.088;2023-07-13T04:24:20;7.10;;;4.13;;
73264;SDS011;61493;51.008;14.088;2023-07-13T04:26:46;5.75;;;3.80;;
73264;SDS011;61493;51.008;14.088;2023-07-13T04:29:11;3.93;;;3.47;;
73264;SDS011;61493;51.008;14.088;2023-07-13T04:31:36;3.60;;;3.03;;
73264;SDS011;61493;51.008;14.088;2023-07-13T04:34:01;4.82;;;3.28;;
73264;SDS011;61493;51.008;14.088;2023-07-13T04:36:27;5.80;;;3.22;;
73264;SDS011;61493;51.008;14.088;2023-07-13T04:38:53;4.38;;;2.88;;
73264;SDS011;61493;51.008;14.088;2023-07-13T04:41:21;4.63;;;3.15;;
73264;SDS011;61493;51.008;14.088;2023-07-13T04:43:46;5.88;;;3.50;;
73264;SDS011;61493;51.008;14.088;2023-07-13T04:46:13;9.57;;;3.47;;
73264;SDS011;61493;51.008;14.088;2023-07-13T04:48:38;6.78;;;4.00;;
73264;SDS011;61493;51.008;14.088;2023-07-13T04:51:03;4.20;;;3.33;;
73264;SDS011;61493;51.008;14.088;2023-07-13T04:53:29;5.63;;;3.47;;
73264;SDS011;61493;51.008;14.088;2023-07-13T04:55:54;3.83;;;3.15;;
73264;SDS011;61493;51.008;14.088;2023-07-13T04:58:20;8.65;;;4.97;;
73264;SDS011;61493;51.008;14.088;2023-07-13T05:00:46;4.90;;;3.13;;
73264;SDS011;61493;51.008;14.088;2023-07-13T05:03:11;7.70;;;3.65;;
73264;SDS011;61493;51.008;14.088;2023-07-13T05:05:36;5.05;;;3.63;;
73264;SDS011;61493;51.008;14.088;2023-07-13T05:08:01;5.32;;;3.20;;
73264;SDS011;61493;51.008;14.088;2023-07-13T05:10:27;4.68;;;3.05;;
73264;SDS011;61493;51.008;14.088;2023-07-13T05:12:53;4.43;;;3.35;;
73264;SDS011;61493;51.008;14.088;2023-07-13T05:15:22;4.53;;;3.20;;
73264;SDS011;61493;51.008;14.088;2023-07-13T05:17:48;5.32;;;3.15;;
73264;SDS011;61493;51.008;14.088;2023-07-13T05:20:13;3.88;;;2.72;;
73264;SDS011;61493;51.008;14.088;2023-07-13T05:22:39;5.20;;;2.42;;
73264;SDS011;61493;51.008;14.088;2023-07-13T05:25:05;3.83;;;2.67;;
73264;SDS011;61493;51.008;14.088;2023-07-13T05:27:30;4.13;;;3.00;;
73264;SDS011;61493;51.008;14.088;2023-07-13T05:29:56;4.77;;;3.03;;
73264;SDS011;61493;51.008;14.088;2023-07-13T05:32:21;3.78;;;2.70;;
73264;SDS011;61493;51.008;14.088;2023-07-13T05:34:46;4.07;;;2.67;;
73264;SDS011;61493;51.008;14.088;2023-07-13T05:37:11;6.13;;;2.77;;
73264;SDS011;61493;51.008;14.088;2023-07-13T05:39:36;2.50;;;2.03;;
73264;SDS011;61493;51.008;14.088;2023-07-13T05:42:02;5.13;;;2.35;;
73264;SDS011;61493;51.008;14.088;2023-07-13T05:44:27;3.92;;;2.00;;
73264;SDS011;61493;51.008;14.088;2023-07-13T05:46:52;3.65;;;2.38;;
73264;SDS011;61493;51.008;14.088;2023-07-13T05:49:18;4.45;;;1.98;;
73264;SDS011;61493;51.008;14.088;2023-07-13T05:51:43;4.40;;;1.95;;
73264;SDS011;61493;51.008;14.088;2023-07-13T05:54:09;3.40;;;1.77;;
73264;SDS011;61493;51.008;14.088;2023-07-13T05:56:34;5.57;;;2.35;;
73264;SDS011;61493;51.008;14.088;2023-07-13T05:58:59;3.97;;;1.85;;
73264;SDS011;61493;51.008;14.088;2023-07-13T06:01:24;3.00;;;1.50;;
73264;SDS011;61493;51.008;14.088;2023-07-13T06:03:50;3.20;;;2.13;;
73264;SDS011;61493;51.008;14.088;2023-07-13T06:06:15;4.97;;;2.03;;
73264;SDS011;61493;51.008;14.088;2023-07-13T06:08:40;2.33;;;1.90;;
73264;SDS011;61493;51.008;14.088;2023-07-13T06:11:16;2.33;;;1.70;;
73264;SDS011;61493;51.008;14.088;2023-07-13T06:13:41;3.22;;;1.90;;
73264;SDS011;61493;51.008;14.088;2023-07-13T06:16:06;3.92;;;1.77;;
73264;SDS011;61493;51.008;14.088;2023-07-13T06:18:34;3.17;;;1.77;;
73264;SDS011;61493;51.008;14.088;2023-07-13T06:21:01;3.55;;;1.90;;
73264;SDS011;61493;51.008;14.088;2023-07-13T06:23:26;3.05;;;1.70;;
73264;SDS011;61493;51.008;14.088;2023-07-13T06:25:51;2.72;;;1.70;;
73264;SDS011;61493;51.008;14.088;2023-07-13T06:28:17;3.42;;;1.90;;
73264;SDS011;61493;51.008;14.088;2023-07-13T06:30:42;3.42;;;1.70;;
73264;SDS011;61493;51.008;14.088;2023-07-13T06:33:07;2.20;;;1.90;;
73264;SDS011;61493;51.008;14.088;2023-07-13T06:35:32;3.90;;;2.00;;
73264;SDS011;61493;51.008;14.088;2023-07-13T06:37:57;3.35;;;1.75;;
73264;SDS011;61493;51.008;14.088;2023-07-13T06:40:22;4.03;;;2.30;;
73264;SDS011;61493;51.008;14.088;2023-07-13T06:42:48;2.55;;;1.85;;
73264;SDS011;61493;51.008;14.088;2023-07-13T06:45:13;2.65;;;1.88;;
73264;SDS011;61493;51.008;14.088;2023-07-13T06:47:38;3.38;;;1.80;;
73264;SDS011;61493;51.008;14.088;2023-07-13T06:50:03;2.43;;;1.50;;
73264;SDS011;61493;51.008;14.088;2023-07-13T06:52:29;3.85;;;1.55;;
73264;SDS011;61493;51.008;14.088;2023-07-13T06:54:54;3.83;;;1.33;;
73264;SDS011;61493;51.008;14.088;2023-07-13T06:57:19;2.40;;;1.60;;
73264;SDS011;61493;51.008;14.088;2023-07-13T06:59:44;3.00;;;1.40;;
73264;SDS011;61493;51.008;14.088;2023-07-13T07:02:10;2.17;;;1.55;;
73264;SDS011;61493;51.008;14.088;2023-07-13T07:04:35;3.78;;;1.85;;
73264;SDS011;61493;51.008;14.088;2023-07-13T07:07:00;1.93;;;1.47;;
73264;SDS011;61493;51.008;14.088;2023-07-13T07:09:25;2.83;;;1.60;;
73264;SDS011;61493;51.008;14.088;2023-07-13T07:11:50;4.93;;;1.63;;
73264;SDS011;61493;51.008;14.088;2023-07-13T07:14:16;2.23;;;1.60;;
73264;SDS011;61493;51.008;14.088;2023-07-13T07:16:41;7.93;;;2.60;;
73264;SDS011;61493;51.008;14.088;2023-07-13T07:19:06;2.27;;;1.50;;
73264;SDS011;61493;51.008;14.088;2023-07-13T07:21:31;2.97;;;1.70;;
73264;SDS011;61493;51.008;14.088;2023-07-13T07:23:57;4.28;;;1.92;;
73264;SDS011;61493;51.008;14.088;2023-07-13T07:26:22;3.27;;;1.67;;
73264;SDS011;61493;51.008;14.088;2023-07-13T07:28:47;3.37;;;2.03;;
73264;SDS011;61493;51.008;14.088;2023-07-13T07:31:12;5.75;;;2.22;;
73264;SDS011;61493;51.008;14.088;2023-07-13T07:33:37;3.13;;;1.90;;
73264;SDS011;61493;51.008;14.088;2023-07-13T07:36:03;4.27;;;2.10;;
73264;SDS011;61493;51.008;14.088;2023-07-13T07:38:28;5.35;;;2.53;;
73264;SDS011;61493;51.008;14.088;2023-07-13T07:40:53;3.43;;;2.00;;
73264;SDS011;61493;51.008;14.088;2023-07-13T07:43:18;6.07;;;2.90;;
73264;SDS011;61493;51.008;14.088;2023-07-13T07:45:44;3.92;;;2.42;;
73264;SDS011;61493;51.008;14.088;2023-07-13T07:48:09;3.92;;;1.80;;
73264;SDS011;61493;51.008;14.088;2023-07-13T07:50:35;4.15;;;2.65;;
73264;SDS011;61493;51.008;14.088;2023-07-13T07:53:00;2.80;;;2.45;;
73264;SDS011;61493;51.008;14.088;2023-07-13T07:55:27;5.85;;;2.28;;
73264;SDS011;61493;51.008;14.088;2023-07-13T07:57:52;4.15;;;2.63;;
73264;SDS011;61493;51.008;14.088;2023-07-13T08:00:17;2.57;;;1.77;;
73264;SDS011;61493;51.008;14.088;2023-07-13T08:02:43;2.20;;;1.95;;
73264;SDS011;61493;51.008;14.088;2023-07-13T08:05:08;3.08;;;2.15;;
73264;SDS011;61493;51.008;14.088;2023-07-13T08:07:34;3.30;;;1.95;;
73264;SDS011;61493;51.008;14.088;2023-07-13T08:09:59;3.22;;;2.17;;
73264;SDS011;61493;51.008;14.088;2023-07-13T08:12:24;3.10;;;1.95;;
73264;SDS011;61493;51.008;14.088;2023-07-13T08:14:50;3.03;;;1.90;;
73264;SDS011;61493;51.008;14.088;2023-07-13T08:17:18;3.33;;;1.70;;
73264;SDS011;61493;51.008;14.088;2023-07-13T08:19:44;5.10;;;2.10;;
73264;SDS011;61493;51.008;14.088;2023-07-13T08:22:09;3.13;;;1.73;;
73264;SDS011;61493;51.008;14.088;2023-07-13T08:24:34;3.43;;;2.30;;
73264;SDS011;61493;51.008;14.088;2023-07-13T08:26:59;3.10;;;1.77;;
73264;SDS011;61493;51.008;14.088;2023-07-13T08:29:24;4.75;;;2.28;;
73264;SDS011;61493;51.008;14.088;2023-07-13T08:31:49;4.28;;;2.67;;
73264;SDS011;61493;51.008;14.088;2023-07-13T08:34:15;4.30;;;2.05;;
73264;SDS011;61493;51.008;14.088;2023-07-13T08:36:40;2.83;;;1.27;;
73264;SDS011;61493;51.008;14.088;2023-07-13T08:39:05;4.20;;;1.50;;
73264;SDS011;61493;51.008;14.088;2023-07-13T08:41:31;2.67;;;1.77;;
73264;SDS011;61493;51.008;14.088;2023-07-13T08:43:57;2.30;;;1.67;;
73264;SDS011;61493;51.008;14.088;2023-07-13T08:46:28;3.25;;;1.83;;
73264;SDS011;61493;51.008;14.088;2023-07-13T08:48:58;3.05;;;1.33;;
73264;SDS011;61493;51.008;14.088;2023-07-13T08:51:25;2.90;;;1.27;;
73264;SDS011;61493;51.008;14.088;2023-07-13T08:53:54;3.53;;;1.52;;
73264;SDS011;61493;51.008;14.088;2023-07-13T08:56:22;2.92;;;1.50;;
73264;SDS011;61493;51.008;14.088;2023-07-13T08:58:51;2.88;;;1.33;;
73264;SDS011;61493;51.008;14.088;2023-07-13T09:01:25;2.17;;;1.20;;
73264;SDS011;61493;51.008;14.088;2023-07-13T09:04:14;2.33;;;1.33;;
73264;SDS011;61493;51.008;14.088;2023-07-13T09:06:46;4.13;;;1.33;;
73264;SDS011;61493;51.008;14.088;2023-07-13T09:09:17;2.40;;;1.17;;
73264;SDS011;61493;51.008;14.088;2023-07-13T09:11:46;2.40;;;1.40;;
73264;SDS011;61493;51.008;14.088;2023-07-13T09:14:24;2.33;;;1.20;;
73264;SDS011;61493;51.008;14.088;2023-07-13T09:16:51;4.20;;;1.40;;
73264;SDS011;61493;51.008;14.088;2023-07-13T09:19:26;1.80;;;1.15;;
73264;SDS011;61493;51.008;14.088;2023-07-13T09:21:53;4.25;;;1.58;;
73264;SDS011;61493;51.008;14.088;2023-07-13T09:27:01;3.88;;;1.45;;
73264;SDS011;61493;51.008;14.088;2023-07-13T09:29:30;4.32;;;1.30;;
73264;SDS011;61493;51.008;14.088;2023-07-13T09:32:01;1.60;;;1.50;;
73264;SDS011;61493;51.008;14.088;2023-07-13T09:34:27;1.58;;;1.08;;
73264;SDS011;61493;51.008;14.088;2023-07-13T09:36:54;3.40;;;1.20;;
73264;SDS011;61493;51.008;14.088;2023-07-13T09:39:27;4.03;;;1.50;;
73264;SDS011;61493;51.008;14.088;2023-07-13T09:42:35;1.70;;;1.38;;
73264;SDS011;61493;51.008;14.088;2023-07-13T09:47:15;4.72;;;1.60;;
73264;SDS011;61493;51.008;14.088;2023-07-13T09:49:41;2.72;;;1.60;;
73264;SDS011;61493;51.008;14.088;2023-07-13T09:52:10;3.13;;;1.50;;
73264;SDS011;61493;51.008;14.088;2023-07-13T09:54:36;2.58;;;1.80;;
73264;SDS011;61493;51.008;14.088;2023-07-13T09:57:03;3.50;;;1.73;;
73264;SDS011;61493;51.008;14.088;2023-07-13T09:59:50;5.70;;;2.92;;
73264;SDS011;61493;51.008;14.088;2023-07-13T10:02:49;2.80;;;1.50;;
73264;SDS011;61493;51.008;14.088;2023-07-13T10:05:07;4.47;;;1.80;;
73264;SDS011;61493;51.008;14.088;2023-07-13T10:07:39;3.08;;;1.42;;
73264;SDS011;61493;51.008;14.088;2023-07-13T10:10:12;2.28;;;1.63;;
73264;SDS011;61493;51.008;14.088;2023-07-13T10:15:04;5.82;;;1.90;;
73264;SDS011;61493;51.008;14.088;2023-07-13T10:17:34;3.60;;;1.60;;
73264;SDS011;61493;51.008;14.088;2023-07-13T10:20:01;3.17;;;1.85;;
73264;SDS011;61493;51.008;14.088;2023-07-13T10:25:16;3.25;;;1.63;;
73264;SDS011;61493;51.008;14.088;2023-07-13T10:27:43;1.88;;;1.40;;
73264;SDS011;61493;51.008;14.088;2023-07-13T10:30:13;3.40;;;1.20;;
73264;SDS011;61493;51.008;14.088;2023-07-13T10:32:39;3.05;;;0.90;;
73264;SDS011;61493;51.008;14.088;2023-07-13T10:35:05;2.13;;;1.10;;
73264;SDS011;61493;51.008;14.088;2023-07-13T10:40:36;1.92;;;1.00;;
73264;SDS011;61493;51.008;14.088;2023-07-13T10:43:04;2.95;;;1.10;;
73264;SDS011;61493;51.008;14.088;2023-07-13T10:45:33;3.33;;;0.98;;
73264;SDS011;61493;51.008;14.088;2023-07-13T10:47:59;2.83;;;1.00;;
73264;SDS011;61493;51.008;14.088;2023-07-13T10:50:25;1.40;;;0.90;;
73264;SDS011;61493;51.008;14.088;2023-07-13T10:52:52;2.53;;;1.23;;
73264;SDS011;61493;51.008;14.088;2023-07-13T10:58:01;2.58;;;0.95;;
73264;SDS011;61493;51.008;14.088;2023-07-13T11:00:30;2.97;;;1.20;;
73264;SDS011;61493;51.008;14.088;2023-07-13T11:02:56;2.30;;;1.08;;
73264;SDS011;61493;51.008;14.088;2023-07-13T11:05:32;3.00;;;1.10;;
73264;SDS011;61493;51.008;14.088;2023-07-13T11:08:13;2.05;;;1.10;;
73264;SDS011;61493;51.008;14.088;2023-07-13T11:10:51;4.18;;;1.48;;
73264;SDS011;61493;51.008;14.088;2023-07-13T11:13:35;1.88;;;1.13;;
73264;SDS011;61493;51.008;14.088;2023-07-13T11:16:01;2.50;;;1.20;;
73264;SDS011;61493;51.008;14.088;2023-07-13T11:18:36;4.38;;;1.30;;
73264;SDS011;61493;51.008;14.088;2023-07-13T11:21:15;3.90;;;1.30;;
73264;SDS011;61493;51.008;14.088;2023-07-13T11:23:44;2.97;;;1.20;;
73264;SDS011;61493;51.008;14.088;2023-07-13T11:26:50;3.53;;;1.30;;
73264;SDS011;61493;51.008;14.088;2023-07-13T11:31:52;2.58;;;1.00;;
73264;SDS011;61493;51.008;14.088;2023-07-13T11:34:21;2.85;;;1.02;;
73264;SDS011;61493;51.008;14.088;2023-07-13T11:36:46;2.75;;;1.42;;
73264;SDS011;61493;51.008;14.088;2023-07-13T11:39:16;2.25;;;1.15;;
73264;SDS011;61493;51.008;14.088;2023-07-13T11:42:00;1.52;;;1.08;;
73264;SDS011;61493;51.008;14.088;2023-07-13T11:44:28;1.88;;;1.30;;
73264;SDS011;61493;51.008;14.088;2023-07-13T11:46:54;2.60;;;1.08;;
73264;SDS011;61493;51.008;14.088;2023-07-13T11:49:20;2.45;;;1.23;;
73264;SDS011;61493;51.008;14.088;2023-07-13T11:51:46;3.85;;;1.30;;
73264;SDS011;61493;51.008;14.088;2023-07-13T11:54:30;2.57;;;1.13;;
73264;SDS011;61493;51.008;14.088;2023-07-13T11:56:57;2.38;;;1.10;;
73264;SDS011;61493;51.008;14.088;2023-07-13T11:59:25;2.08;;;1.30;;
73264;SDS011;61493;51.008;14.088;2023-07-13T12:01:51;4.13;;;1.20;;
73264;SDS011;61493;51.008;14.088;2023-07-13T12:06:46;2.50;;;1.27;;
73264;SDS011;61493;51.008;14.088;2023-07-13T12:09:12;2.67;;;1.17;;
73264;SDS011;61493;51.008;14.088;2023-07-13T12:11:39;2.40;;;0.88;;
73264;SDS011;61493;51.008;14.088;2023-07-13T12:14:05;2.40;;;1.25;;
73264;SDS011;61493;51.008;14.088;2023-07-13T12:16:30;5.77;;;1.30;;
73264;SDS011;61493;51.008;14.088;2023-07-13T12:18:57;1.98;;;0.93;;
73264;SDS011;61493;51.008;14.088;2023-07-13T12:21:36;4.43;;;1.55;;
73264;SDS011;61493;51.008;14.088;2023-07-13T12:24:02;2.28;;;1.20;;
73264;SDS011;61493;51.008;14.088;2023-07-13T12:26:29;2.88;;;1.58;;
73264;SDS011;61493;51.008;14.088;2023-07-13T12:28:55;2.47;;;1.10;;
73264;SDS011;61493;51.008;14.088;2023-07-13T12:31:41;2.42;;;1.30;;
73264;SDS011;61493;51.008;14.088;2023-07-13T12:34:08;2.08;;;1.20;;
73264;SDS011;61493;51.008;14.088;2023-07-13T12:36:36;3.13;;;1.48;;
73264;SDS011;61493;51.008;14.088;2023-07-13T12:39:15;3.15;;;1.20;;
73264;SDS011;61493;51.008;14.088;2023-07-13T12:41:41;4.93;;;1.40;;
73264;SDS011;61493;51.008;14.088;2023-07-13T12:44:12;3.55;;;1.20;;
73264;SDS011;61493;51.008;14.088;2023-07-13T12:46:38;3.05;;;1.48;;
73264;SDS011;61493;51.008;14.088;2023-07-13T12:49:06;4.40;;;1.90;;
73264;SDS011;61493;51.008;14.088;2023-07-13T12:51:32;2.80;;;1.42;;
73264;SDS011;61493;51.008;14.088;2023-07-13T12:54:05;2.80;;;1.70;;
73264;SDS011;61493;51.008;14.088;2023-07-13T12:56:32;2.22;;;1.40;;
73264;SDS011;61493;51.008;14.088;2023-07-13T12:58:58;3.35;;;1.35;;
73264;SDS011;61493;51.008;14.088;2023-07-13T13:01:29;2.95;;;1.45;;
73264;SDS011;61493;51.008;14.088;2023-07-13T13:03:56;3.30;;;1.58;;
73264;SDS011;61493;51.008;14.088;2023-07-13T13:06:26;3.63;;;1.30;;
73264;SDS011;61493;51.008;14.088;2023-07-13T13:08:56;2.55;;;1.67;;
73264;SDS011;61493;51.008;14.088;2023-07-13T13:11:23;5.60;;;1.38;;
73264;SDS011;61493;51.008;14.088;2023-07-13T13:13:49;2.40;;;1.23;;
73264;SDS011;61493;51.008;14.088;2023-07-13T13:16:22;4.00;;;1.35;;
73264;SDS011;61493;51.008;14.088;2023-07-13T13:18:51;2.75;;;1.65;;
73264;SDS011;61493;51.008;14.088;2023-07-13T13:21:17;4.35;;;1.92;;
73264;SDS011;61493;51.008;14.088;2023-07-13T13:23:44;3.00;;;1.40;;
73264;SDS011;61493;51.008;14.088;2023-07-13T13:26:13;3.08;;;1.38;;
73264;SDS011;61493;51.008;14.088;2023-07-13T13:28:42;3.63;;;1.63;;
73264;SDS011;61493;51.008;14.088;2023-07-13T13:31:08;4.22;;;1.55;;
73264;SDS011;61493;51.008;14.088;2023-07-13T13:33:37;6.60;;;1.80;;
73264;SDS011;61493;51.008;14.088;2023-07-13T13:36:04;5.10;;;1.60;;
73264;SDS011;61493;51.008;14.088;2023-07-13T13:38:29;3.65;;;1.65;;
73264;SDS011;61493;51.008;14.088;2023-07-13T13:40:55;3.72;;;1.65;;
73264;SDS011;61493;51.008;14.088;2023-07-13T13:43:25;4.30;;;1.77;;
73264;SDS011;61493;51.008;14.088;2023-07-13T13:45:51;2.45;;;1.60;;
73264;SDS011;61493;51.008;14.088;2023-07-13T13:48:18;4.55;;;1.60;;
73264;SDS011;61493;51.008;14.088;2023-07-13T13:50:43;4.22;;;1.23;;
73264;SDS011;61493;51.008;14.088;2023-07-13T13:53:10;1.73;;;1.33;;
73264;SDS011;61493;51.008;14.088;2023-07-13T13:55:36;2.20;;;1.50;;
73264;SDS011;61493;51.008;14.088;2023-07-13T13:58:01;2.43;;;1.50;;
73264;SDS011;61493;51.008;14.088;2023-07-13T14:00:26;3.90;;;1.50;;
73264;SDS011;61493;51.008;14.088;2023-07-13T14:02:51;1.97;;;1.50;;
73264;SDS011;61493;51.008;14.088;2023-07-13T14:05:18;2.78;;;1.40;;
73264;SDS011;61493;51.008;14.088;2023-07-13T14:07:45;2.20;;;1.42;;
73264;SDS011;61493;51.008;14.088;2023-07-13T14:10:11;2.10;;;1.25;;
73264;SDS011;61493;51.008;14.088;2023-07-13T14:12:37;2.45;;;1.27;;
73264;SDS011;61493;51.008;14.088;2023-07-13T14:15:03;3.47;;;1.55;;
73264;SDS011;61493;51.008;14.088;2023-07-13T14:17:28;3.17;;;1.08;;
73264;SDS011;61493;51.008;14.088;2023-07-13T14:19:53;3.17;;;1.60;;
73264;SDS011;61493;51.008;14.088;2023-07-13T14:22:24;3.63;;;1.20;;
73264;SDS011;61493;51.008;14.088;2023-07-13T14:24:51;4.97;;;1.40;;
73264;SDS011;61493;51.008;14.088;2023-07-13T14:27:16;2.90;;;1.33;;
73264;SDS011;61493;51.008;14.088;2023-07-13T14:29:41;2.67;;;1.35;;
73264;SDS011;61493;51.008;14.088;2023-07-13T14:32:10;2.33;;;1.15;;
73264;SDS011;61493;51.008;14.088;2023-07-13T14:34:36;3.25;;;1.30;;
73264;SDS011;61493;51.008;14.088;2023-07-13T14:37:01;1.93;;;1.07;;
73264;SDS011;61493;51.008;14.088;2023-07-13T14:39:26;3.00;;;1.70;;
73264;SDS011;61493;51.008;14.088;2023-07-13T14:41:52;2.83;;;1.30;;
73264;SDS011;61493;51.008;14.088;2023-07-13T14:44:20;3.28;;;1.55;;
73264;SDS011;61493;51.008;14.088;2023-07-13T14:46:46;2.78;;;1.45;;
73264;SDS011;61493;51.008;14.088;2023-07-13T14:51:36;1.87;;;1.40;;
73264;SDS011;61493;51.008;14.088;2023-07-13T14:54:02;3.27;;;1.43;;
73264;SDS011;61493;51.008;14.088;2023-07-13T14:56:28;2.63;;;1.60;;
73264;SDS011;61493;51.008;14.088;2023-07-13T14:58:53;3.73;;;1.40;;